• Join FlightAware (Why Join?)
  • Login
  • US Flag 
Gobble Gobble! 
01:13AM EST


 

Airport Tracker/Info


-or-


 

Live Flight TrackerFlight Track Log ✈ N61544 ✈ 20-May-2013 ✈ 57C - KTDF

Flight Track Log - Related Links

Times and Time Zones

All times are in EDT time to prevent confusion due to time zone crossing. See the N61544 flight status page for this flight to view local times or setup timezone preferences in your user account.

Time Position Orientation Groundspeed Altitude Reporting Facility
EDT Latitude Longitude Course Direction KTS MPH feet Rate Location/Type
06:31AM 42.7833 -88.3833 173° South 75 86 3,700  Level KMKE
06:33AM 42.7409 -88.3763 173° South  Level FlightAware Approximate
06:40AM 42.5048 -88.3506 175° South  Level FlightAware Approximate
06:41AM 42.4711 -88.3500 180° South  Level FlightAware Approximate
06:42AM 42.4373 -88.3500 180° South  Level FlightAware Approximate
06:43AM 42.4036 -88.3500 180° South  Level FlightAware Approximate
06:44AM 42.3698 -88.3500 180° South  Level FlightAware Approximate
06:45AM 42.3361 -88.3500 180° South  Level FlightAware Approximate
06:46AM 42.3023 -88.3500 180° South  Level FlightAware Approximate
06:47AM 42.2685 -88.3500 180° South  Level FlightAware Approximate
06:48AM 42.2348 -88.3500 180° South  Level FlightAware Approximate
06:49AM 42.2010 -88.3500 180° South  Level FlightAware Approximate
06:50AM 42.1673 -88.3500 180° South  Level FlightAware Approximate
06:51AM 42.1335 -88.3500 180° South  Level FlightAware Approximate
06:52AM 42.0997 -88.3500 180° South  Level FlightAware Approximate
06:53AM 42.0660 -88.3500 180° South  Level FlightAware Approximate
06:54AM 42.0322 -88.3500 180° South  Level FlightAware Approximate
06:55AM 41.9985 -88.3500 180° South  Level FlightAware Approximate
06:56AM 41.9647 -88.3500 180° South  Level FlightAware Approximate
06:57AM 41.9309 -88.3500 180° South  Level FlightAware Approximate
06:58AM 41.8972 -88.3500 180° South  Level FlightAware Approximate
06:59AM 41.8723 -88.3279 124° Southeast  Level FlightAware Approximate
07:00AM 41.8534 -88.2903 124° Southeast  Level FlightAware Approximate
07:01AM 41.8345 -88.2527 124° Southeast  Level FlightAware Approximate
07:02AM 41.8157 -88.2152 124° Southeast  Level FlightAware Approximate
07:03AM 41.7968 -88.1777 124° Southeast  Level FlightAware Approximate
07:04AM 41.7779 -88.1402 124° Southeast  Level FlightAware Approximate
07:05AM 41.7589 -88.1027 124° Southeast  Level FlightAware Approximate
07:06AM 41.7400 -88.0652 124° Southeast  Level FlightAware Approximate
07:07AM 41.7211 -88.0278 124° Southeast  Level FlightAware Approximate
07:08AM 41.7021 -87.9904 124° Southeast  Level FlightAware Approximate
07:09AM 41.6832 -87.9530 124° Southeast  Level FlightAware Approximate
07:10AM 41.6642 -87.9156 124° Southeast  Level FlightAware Approximate
07:11AM 41.6452 -87.8782 124° Southeast  Level FlightAware Approximate
07:12AM 41.6262 -87.8409 124° Southeast  Level FlightAware Approximate
07:13AM 41.6072 -87.8036 124° Southeast  Level FlightAware Approximate
07:14AM 41.5882 -87.7663 124° Southeast  Level FlightAware Approximate
07:15AM 41.5691 -87.7291 124° Southeast  Level FlightAware Approximate
07:16AM 41.5501 -87.6918 124° Southeast  Level FlightAware Approximate
07:17AM 41.5310 -87.6546 124° Southeast  Level FlightAware Approximate
07:18AM 41.5119 -87.6174 124° Southeast  Level FlightAware Approximate
07:19AM 41.4929 -87.5802 124° Southeast  Level FlightAware Approximate
07:20AM 41.4738 -87.5431 124° Southeast  Level FlightAware Approximate
07:21AM 41.4546 -87.5059 124° Southeast  Level FlightAware Approximate
07:22AM 41.4355 -87.4688 124° Southeast  Level FlightAware Approximate
07:23AM 41.4164 -87.4317 125° Southeast  Level FlightAware Approximate
07:24AM 41.3971 -87.3948 127° Southeast  Level FlightAware Approximate
07:25AM 41.3769 -87.3588 127° Southeast  Level FlightAware Approximate
07:26AM 41.3567 -87.3228 127° Southeast  Level FlightAware Approximate
07:27AM 41.3365 -87.2868 127° Southeast  Level FlightAware Approximate
07:28AM 41.3162 -87.2508 127° Southeast  Level FlightAware Approximate
07:29AM 41.2960 -87.2148 127° Southeast  Level FlightAware Approximate
07:30AM 41.2757 -87.1789 127° Southeast  Level FlightAware Approximate
07:31AM 41.2555 -87.1430 127° Southeast  Level FlightAware Approximate
07:32AM 41.2358 -87.1065 125° Southeast  Level FlightAware Approximate
07:33AM 41.2164 -87.0697 125° Southeast  Level FlightAware Approximate
07:34AM 41.1970 -87.0330 125° Southeast  Level FlightAware Approximate
07:35AM 41.1776 -86.9963 125° Southeast  Level FlightAware Approximate
07:36AM 41.1582 -86.9596 125° Southeast  Level FlightAware Approximate
07:37AM 41.1388 -86.9230 125° Southeast  Level FlightAware Approximate
07:38AM 41.1193 -86.8864 125° Southeast  Level FlightAware Approximate
07:39AM 41.0999 -86.8497 126° Southeast  Level FlightAware Approximate
07:40AM 41.0799 -86.8136 126° Southeast  Level FlightAware Approximate
07:41AM 41.0600 -86.7775 126° Southeast  Level FlightAware Approximate
07:42AM 41.0401 -86.7413 126° Southeast  Level FlightAware Approximate
07:43AM 41.0201 -86.7053 126° Southeast  Level FlightAware Approximate
07:44AM 41.0001 -86.6692 126° Southeast  Level FlightAware Approximate
07:45AM 40.9802 -86.6331 126° Southeast  Level FlightAware Approximate
07:46AM 40.9602 -86.5971 126° Southeast  Level FlightAware Approximate
07:47AM 40.9402 -86.5611 126° Southeast  Level FlightAware Approximate
07:48AM 40.9202 -86.5251 126° Southeast  Level FlightAware Approximate
07:49AM 40.9001 -86.4892 126° Southeast  Level FlightAware Approximate
07:50AM 40.8801 -86.4532 126° Southeast  Level FlightAware Approximate
07:51AM 40.8601 -86.4173 126° Southeast  Level FlightAware Approximate
07:52AM 40.8400 -86.3814 126° Southeast  Level FlightAware Approximate
07:53AM 40.8199 -86.3456 126° Southeast  Level FlightAware Approximate
07:54AM 40.7999 -86.3097 126° Southeast  Level FlightAware Approximate
07:55AM 40.7798 -86.2739 127° Southeast  Level FlightAware Approximate
07:56AM 40.7597 -86.2381 127° Southeast  Level FlightAware Approximate
07:57AM 40.7396 -86.2023 127° Southeast  Level FlightAware Approximate
07:58AM 40.7194 -86.1665 127° Southeast  Level FlightAware Approximate
07:59AM 40.6993 -86.1308 127° Southeast  Level FlightAware Approximate
08:00AM 40.6792 -86.0951 127° Southeast  Level FlightAware Approximate
08:01AM 40.6590 -86.0594 127° Southeast  Level FlightAware Approximate
08:02AM 40.6388 -86.0237 127° Southeast  Level FlightAware Approximate
08:03AM 40.6186 -85.9880 127° Southeast  Level FlightAware Approximate
08:04AM 40.5985 -85.9524 127° Southeast  Level FlightAware Approximate
08:05AM 40.5783 -85.9168 127° Southeast  Level FlightAware Approximate
08:06AM 40.5580 -85.8812 127° Southeast  Level FlightAware Approximate
08:07AM 40.5378 -85.8456 127° Southeast  Level FlightAware Approximate
08:08AM 40.5176 -85.8101 127° Southeast  Level FlightAware Approximate
08:09AM 40.4974 -85.7745 127° Southeast  Level FlightAware Approximate
08:10AM 40.4771 -85.7390 127° Southeast  Level FlightAware Approximate
08:11AM 40.4568 -85.7036 127° Southeast  Level FlightAware Approximate
08:12AM 40.4366 -85.6681 127° Southeast  Level FlightAware Approximate
08:13AM 40.4163 -85.6327 125° Southeast  Level FlightAware Approximate
08:14AM 40.3970 -85.5963 125° Southeast  Level FlightAware Approximate
08:15AM 40.3778 -85.5599 125° Southeast  Level FlightAware Approximate
08:16AM 40.3585 -85.5235 125° Southeast  Level FlightAware Approximate
08:17AM 40.3392 -85.4872 125° Southeast  Level FlightAware Approximate
08:18AM 40.3199 -85.4509 125° Southeast  Level FlightAware Approximate
08:19AM 40.3005 -85.4146 125° Southeast  Level FlightAware Approximate
08:20AM 40.2812 -85.3783 125° Southeast  Level FlightAware Approximate
08:21AM 40.2618 -85.3421 125° Southeast  Level FlightAware Approximate
08:22AM 40.2425 -85.3058 125° Southeast  Level FlightAware Approximate
08:23AM 40.2231 -85.2696 125° Southeast  Level FlightAware Approximate
08:24AM 40.2037 -85.2334 125° Southeast  Level FlightAware Approximate
08:25AM 40.1843 -85.1973 125° Southeast  Level FlightAware Approximate
08:26AM 40.1649 -85.1611 125° Southeast  Level FlightAware Approximate
08:27AM 40.1453 -85.1252 127° Southeast  Level FlightAware Approximate
08:28AM 40.1250 -85.0900 127° Southeast  Level FlightAware Approximate
08:29AM 40.1046 -85.0548 127° Southeast  Level FlightAware Approximate
08:30AM 40.0842 -85.0196 127° Southeast  Level FlightAware Approximate
08:31AM 40.0638 -84.9844 127° Southeast  Level FlightAware Approximate
08:32AM 40.0434 -84.9493 127° Southeast  Level FlightAware Approximate
08:33AM 40.0230 -84.9142 127° Southeast  Level FlightAware Approximate
08:34AM 40.0026 -84.8791 127° Southeast  Level FlightAware Approximate
08:35AM 39.9822 -84.8440 127° Southeast  Level FlightAware Approximate
08:36AM 39.9618 -84.8089 127° Southeast  Level FlightAware Approximate
08:37AM 39.9413 -84.7739 127° Southeast  Level FlightAware Approximate
08:38AM 39.9209 -84.7389 127° Southeast  Level FlightAware Approximate
08:39AM 39.9004 -84.7039 127° Southeast  Level FlightAware Approximate
08:40AM 39.8799 -84.6689 127° Southeast  Level FlightAware Approximate
08:41AM 39.8594 -84.6340 127° Southeast  Level FlightAware Approximate
08:42AM 39.8389 -84.5990 127° Southeast  Level FlightAware Approximate
08:43AM 39.8184 -84.5641 127° Southeast  Level FlightAware Approximate
08:44AM 39.7979 -84.5292 127° Southeast  Level FlightAware Approximate
08:45AM 39.7774 -84.4944 127° Southeast  Level FlightAware Approximate
08:46AM 39.7568 -84.4595 127° Southeast  Level FlightAware Approximate
08:47AM 39.7363 -84.4247 127° Southeast  Level FlightAware Approximate
08:48AM 39.7157 -84.3899 128° Southeast  Level FlightAware Approximate
08:49AM 39.6951 -84.3551 128° Southeast  Level FlightAware Approximate
08:50AM 39.6746 -84.3203 128° Southeast  Level FlightAware Approximate
08:51AM 39.6540 -84.2856 128° Southeast  Level FlightAware Approximate
08:52AM 39.6334 -84.2509 128° Southeast  Level FlightAware Approximate
08:53AM 39.6128 -84.2162 128° Southeast  Level FlightAware Approximate
08:54AM 39.5921 -84.1815 128° Southeast  Level FlightAware Approximate
08:55AM 39.5715 -84.1468 128° Southeast  Level FlightAware Approximate
08:56AM 39.5509 -84.1122 128° Southeast  Level FlightAware Approximate
08:57AM 39.5302 -84.0776 128° Southeast  Level FlightAware Approximate
08:58AM 39.5095 -84.0430 128° Southeast  Level FlightAware Approximate
08:59AM 39.4889 -84.0084 128° Southeast  Level FlightAware Approximate
09:00AM 39.4682 -83.9738 128° Southeast  Level FlightAware Approximate
09:01AM 39.4475 -83.9393 128° Southeast  Level FlightAware Approximate
09:02AM 39.4268 -83.9048 128° Southeast  Level FlightAware Approximate
09:03AM 39.4061 -83.8703 128° Southeast  Level FlightAware Approximate
09:04AM 39.3853 -83.8358 128° Southeast  Level FlightAware Approximate
09:05AM 39.3646 -83.8013 128° Southeast  Level FlightAware Approximate
09:06AM 39.3438 -83.7669 128° Southeast  Level FlightAware Approximate
09:07AM 39.3231 -83.7325 128° Southeast  Level FlightAware Approximate
09:08AM 39.3023 -83.6981 128° Southeast  Level FlightAware Approximate
09:09AM 39.2817 -83.6635 123° Southeast  Level FlightAware Approximate
09:10AM 39.2634 -83.6269 123° Southeast  Level FlightAware Approximate
09:11AM 39.2445 -83.5908 128° Southeast  Level FlightAware Approximate
09:12AM 39.2240 -83.5562 128° Southeast  Level FlightAware Approximate
09:13AM 39.2034 -83.5217 128° Southeast  Level FlightAware Approximate
09:14AM 39.1828 -83.4872 128° Southeast  Level FlightAware Approximate
09:15AM 39.1622 -83.4527 128° Southeast  Level FlightAware Approximate
09:16AM 39.1416 -83.4182 128° Southeast  Level FlightAware Approximate
09:17AM 39.1210 -83.3837 128° Southeast  Level FlightAware Approximate
09:18AM 39.1004 -83.3493 128° Southeast  Level FlightAware Approximate
09:19AM 39.0797 -83.3149 128° Southeast  Level FlightAware Approximate
09:20AM 39.0591 -83.2805 128° Southeast  Level FlightAware Approximate
09:21AM 39.0384 -83.2461 128° Southeast  Level FlightAware Approximate
09:22AM 39.0177 -83.2117 128° Southeast  Level FlightAware Approximate
09:23AM 38.9971 -83.1774 128° Southeast  Level FlightAware Approximate
09:24AM 38.9764 -83.1431 128° Southeast  Level FlightAware Approximate
09:25AM 38.9557 -83.1088 128° Southeast  Level FlightAware Approximate
09:26AM 38.9350 -83.0745 128° Southeast  Level FlightAware Approximate
09:27AM 38.9143 -83.0402 128° Southeast  Level FlightAware Approximate
09:28AM 38.8934 -83.0062 129° Southeast  Level FlightAware Approximate
09:29AM 38.8721 -82.9726 129° Southeast  Level FlightAware Approximate
09:30AM 38.8508 -82.9390 129° Southeast  Level FlightAware Approximate
09:31AM 38.8295 -82.9054 129° Southeast  Level FlightAware Approximate
09:32AM 38.8081 -82.8718 129° Southeast  Level FlightAware Approximate
09:33AM 38.7868 -82.8382 129° Southeast  Level FlightAware Approximate
09:34AM 38.7654 -82.8047 129° Southeast  Level FlightAware Approximate
09:35AM 38.7441 -82.7712 129° Southeast  Level FlightAware Approximate
09:36AM 38.7227 -82.7377 129° Southeast  Level FlightAware Approximate
09:37AM 38.7013 -82.7042 129° Southeast  Level FlightAware Approximate
09:38AM 38.6799 -82.6707 129° Southeast  Level FlightAware Approximate
09:39AM 38.6589 -82.6369 127° Southeast  Level FlightAware Approximate
09:40AM 38.6384 -82.6026 127° Southeast  Level FlightAware Approximate
09:41AM 38.6179 -82.5683 127° Southeast  Level FlightAware Approximate
09:42AM 38.5974 -82.5339 127° Southeast  Level FlightAware Approximate
09:43AM 38.5769 -82.4996 127° Southeast  Level FlightAware Approximate
09:44AM 38.5564 -82.4653 127° Southeast  Level FlightAware Approximate
09:45AM 38.5359 -82.4311 127° Southeast  Level FlightAware Approximate
09:46AM 38.5153 -82.3969 127° Southeast  Level FlightAware Approximate
09:47AM 38.4948 -82.3626 127° Southeast  Level FlightAware Approximate
09:48AM 38.4742 -82.3284 128° Southeast  Level FlightAware Approximate
09:49AM 38.4537 -82.2942 128° Southeast  Level FlightAware Approximate
09:50AM 38.4331 -82.2601 128° Southeast  Level FlightAware Approximate
09:51AM 38.4125 -82.2259 128° Southeast  Level FlightAware Approximate
09:52AM 38.3919 -82.1918 128° Southeast  Level FlightAware Approximate
09:53AM 38.3713 -82.1577 128° Southeast  Level FlightAware Approximate
09:54AM 38.3503 -82.1240 129° Southeast  Level FlightAware Approximate
09:55AM 38.3292 -82.0904 129° Southeast  Level FlightAware Approximate
09:56AM 38.3081 -82.0569 129° Southeast  Level FlightAware Approximate
09:57AM 38.2869 -82.0233 129° Southeast  Level FlightAware Approximate
09:58AM 38.2658 -81.9898 129° Southeast  Level FlightAware Approximate
09:59AM 38.2446 -81.9563 129° Southeast  Level FlightAware Approximate
10:00AM 38.2234 -81.9229 129° Southeast  Level FlightAware Approximate
10:01AM 38.2023 -81.8894 129° Southeast  Level FlightAware Approximate
10:02AM 38.1811 -81.8560 129° Southeast  Level FlightAware Approximate
10:03AM 38.1599 -81.8226 129° Southeast  Level FlightAware Approximate
10:04AM 38.1387 -81.7892 129° Southeast  Level FlightAware Approximate
10:05AM 38.1175 -81.7558 129° Southeast  Level FlightAware Approximate
10:06AM 38.0962 -81.7224 129° Southeast  Level FlightAware Approximate
10:07AM 38.0750 -81.6891 129° Southeast  Level FlightAware Approximate
10:08AM 38.0538 -81.6558 129° Southeast  Level FlightAware Approximate
10:09AM 38.0325 -81.6225 129° Southeast  Level FlightAware Approximate
10:10AM 38.0112 -81.5892 129° Southeast  Level FlightAware Approximate
10:11AM 37.9900 -81.5559 129° Southeast  Level FlightAware Approximate
10:12AM 37.9687 -81.5227 129° Southeast  Level FlightAware Approximate
10:13AM 37.9474 -81.4895 129° Southeast  Level FlightAware Approximate
10:14AM 37.9261 -81.4563 129° Southeast  Level FlightAware Approximate
10:15AM 37.9048 -81.4231 129° Southeast  Level FlightAware Approximate
10:16AM 37.8835 -81.3899 129° Southeast  Level FlightAware Approximate
10:17AM 37.8621 -81.3568 129° Southeast  Level FlightAware Approximate
10:18AM 37.8408 -81.3237 129° Southeast  Level FlightAware Approximate
10:19AM 37.8195 -81.2906 129° Southeast  Level FlightAware Approximate
10:20AM 37.7981 -81.2575 129° Southeast  Level FlightAware Approximate
10:21AM 37.7767 -81.2244 129° Southeast  Level FlightAware Approximate
10:22AM 37.7554 -81.1913 129° Southeast  Level FlightAware Approximate
10:23AM 37.7340 -81.1583 129° Southeast  Level FlightAware Approximate
10:24AM 37.7126 -81.1253 129° Southeast  Level FlightAware Approximate
10:25AM 37.6912 -81.0923 129° Southeast  Level FlightAware Approximate
10:26AM 37.6698 -81.0593 129° Southeast  Level FlightAware Approximate
10:27AM 37.6484 -81.0264 129° Southeast  Level FlightAware Approximate
10:28AM 37.6269 -80.9935 129° Southeast  Level FlightAware Approximate
10:29AM 37.6055 -80.9605 129° Southeast  Level FlightAware Approximate
10:30AM 37.5840 -80.9277 129° Southeast  Level FlightAware Approximate
10:31AM 37.5626 -80.8948 129° Southeast  Level FlightAware Approximate
10:32AM 37.5411 -80.8619 129° Southeast  Level FlightAware Approximate
10:33AM 37.5219 -80.8270 122° Southeast  Level FlightAware Approximate
10:34AM 37.5002 -80.7946 133° Southeast  Level FlightAware Approximate
10:35AM 37.4770 -80.7637 133° Southeast  Level FlightAware Approximate
10:36AM 37.4538 -80.7328 133° Southeast  Level FlightAware Approximate
10:37AM 37.4306 -80.7019 133° Southeast  Level FlightAware Approximate
10:38AM 37.4081 -80.6702 129° Southeast  Level FlightAware Approximate
10:39AM 37.3867 -80.6374 129° Southeast  Level FlightAware Approximate
10:40AM 37.3653 -80.6046 129° Southeast  Level FlightAware Approximate
10:41AM 37.3439 -80.5718 129° Southeast  Level FlightAware Approximate
10:42AM 37.3224 -80.5390 129° Southeast  Level FlightAware Approximate
10:43AM 37.3010 -80.5062 129° Southeast  Level FlightAware Approximate
10:44AM 37.2795 -80.4735 129° Southeast  Level FlightAware Approximate
10:45AM 37.2581 -80.4407 129° Southeast  Level FlightAware Approximate
10:46AM 37.2366 -80.4080 130° Southeast  Level FlightAware Approximate
10:47AM 37.2151 -80.3753 130° Southeast  Level FlightAware Approximate
10:48AM 37.1936 -80.3427 130° Southeast  Level FlightAware Approximate
10:49AM 37.1721 -80.3100 130° Southeast  Level FlightAware Approximate
10:50AM 37.1506 -80.2774 130° Southeast  Level FlightAware Approximate
10:51AM 37.1291 -80.2447 130° Southeast  Level FlightAware Approximate
10:52AM 37.1075 -80.2121 130° Southeast  Level FlightAware Approximate
10:53AM 37.0860 -80.1796 130° Southeast  Level FlightAware Approximate
10:54AM 37.0644 -80.1470 130° Southeast  Level FlightAware Approximate
10:55AM 37.0429 -80.1144 130° Southeast  Level FlightAware Approximate
10:56AM 37.0213 -80.0819 130° Southeast  Level FlightAware Approximate
10:57AM 36.9997 -80.0494 130° Southeast  Level FlightAware Approximate
10:58AM 36.9781 -80.0169 130° Southeast  Level FlightAware Approximate
10:59AM 36.9565 -79.9845 130° Southeast  Level FlightAware Approximate
11:00AM 36.9349 -79.9520 130° Southeast  Level FlightAware Approximate
11:01AM 36.9133 -79.9196 130° Southeast  Level FlightAware Approximate
11:02AM 36.8917 -79.8872 130° Southeast  Level FlightAware Approximate
11:03AM 36.8701 -79.8548 130° Southeast  Level FlightAware Approximate
11:04AM 36.8484 -79.8224 130° Southeast  Level FlightAware Approximate
11:05AM 36.8268 -79.7900 130° Southeast  Level FlightAware Approximate
11:06AM 36.8051 -79.7577 130° Southeast  Level FlightAware Approximate
11:07AM 36.7832 -79.7256 131° Southeast  Level FlightAware Approximate
11:08AM 36.7612 -79.6937 131° Southeast  Level FlightAware Approximate
11:09AM 36.7392 -79.6617 131° Southeast  Level FlightAware Approximate
11:10AM 36.7172 -79.6298 131° Southeast  Level FlightAware Approximate
11:11AM 36.6951 -79.5979 131° Southeast  Level FlightAware Approximate
11:12AM 36.6731 -79.5661 131° Southeast  Level FlightAware Approximate
11:13AM 36.6510 -79.5342 131° Southeast  Level FlightAware Approximate
11:14AM 36.6289 -79.5024 131° Southeast  Level FlightAware Approximate
11:15AM 36.6069 -79.4706 131° Southeast  Level FlightAware Approximate
11:16AM 36.5848 -79.4388 131° Southeast  Level FlightAware Approximate
11:17AM 36.5627 -79.4070 131° Southeast  Level FlightAware Approximate
11:18AM 36.5406 -79.3752 131° Southeast  Level FlightAware Approximate
11:19AM 36.5185 -79.3435 131° Southeast  Level FlightAware Approximate
11:20AM 36.4964 -79.3117 131° Southeast  Level FlightAware Approximate
11:21AM 36.4743 -79.2800 131° Southeast  Level FlightAware Approximate
11:22AM 36.4521 -79.2483 131° Southeast  Level FlightAware Approximate
11:23AM 36.4300 -79.2167 131° Southeast  Level FlightAware Approximate
11:24AM 36.4078 -79.1850 131° Southeast  Level FlightAware Approximate
11:25AM 36.3857 -79.1534 131° Southeast  Level FlightAware Approximate
11:26AM 36.3674 -79.1182 122° Southeast  Level FlightAware Approximate
11:27AM 36.3496 -79.0826 122° Southeast  Level FlightAware Approximate
11:28AM 36.3311 -79.0478 141° Southeast  Level FlightAware Approximate
11:29AM 36.3070 -79.0188 130° Southeast  Level FlightAware Approximate
11:30AM 36.2854 -78.9865 130° Southeast  Level FlightAware Approximate
11:31AM 36.2833 -78.9833 130° Southeast  Level FlightAware Approximate
11:32AM 36.2846 -78.9846 130° Southeast  Level Estimated
11:33AM 36.2833 -78.9833 130° Southeast  Level FlightAware Approximate
11:34AM 36.2846 -78.9846 130° Southeast  Level Estimated
11:35AM 36.2833 -78.9833 130° Southeast  Level FlightAware Approximate
11:36AM 36.2846 -78.9846 130° Southeast  Level Estimated
11:37AM 36.2833 -78.9833 130° Southeast  Level FlightAware Approximate
11:38AM 36.2846 -78.9846 130° Southeast  Level Estimated
11:39AM 36.2833 -78.9833 130° Southeast  Level FlightAware Approximate
11:40AM 36.2846 -78.9846 130° Southeast  Level Estimated
11:41AM 36.2833 -78.9833 130° Southeast  Level FlightAware Approximate
11:42AM 36.2846 -78.9846 130° Southeast  Level Estimated
11:43AM 36.2833 -78.9833 130° Southeast  Level FlightAware Approximate
11:44AM 36.2846 -78.9846 130° Southeast  Level Estimated
11:45AM 36.2833 -78.9833 130° Southeast  Level FlightAware Approximate
11:46AM 36.2846 -78.9846 130° Southeast  Level Estimated